sensor_id;sensor_type;location;lat;lon;timestamp;P1;durP1;ratioP1;P2;durP2;ratioP2
85133;SDS011;75590;42.690;23.356;2024-01-15T00:01:20;147.57;;;62.15;;
85133;SDS011;75590;42.690;23.356;2024-01-15T00:03:46;137.48;;;62.75;;
85133;SDS011;75590;42.690;23.356;2024-01-15T00:06:11;146.45;;;59.53;;
85133;SDS011;75590;42.690;23.356;2024-01-15T00:08:37;139.35;;;66.38;;
85133;SDS011;75590;42.690;23.356;2024-01-15T00:11:02;138.40;;;61.28;;
85133;SDS011;75590;42.690;23.356;2024-01-15T00:13:28;132.35;;;58.40;;
85133;SDS011;75590;42.690;23.356;2024-01-15T00:15:53;142.48;;;57.78;;
85133;SDS011;75590;42.690;23.356;2024-01-15T00:18:19;133.77;;;62.72;;
85133;SDS011;75590;42.690;23.356;2024-01-15T00:20:44;137.63;;;62.55;;
85133;SDS011;75590;42.690;23.356;2024-01-15T00:23:10;137.82;;;60.75;;
85133;SDS011;75590;42.690;23.356;2024-01-15T00:25:35;121.70;;;52.35;;
85133;SDS011;75590;42.690;23.356;2024-01-15T00:28:01;129.25;;;55.80;;
85133;SDS011;75590;42.690;23.356;2024-01-15T00:30:26;135.43;;;59.63;;
85133;SDS011;75590;42.690;23.356;2024-01-15T00:32:52;141.80;;;58.10;;
85133;SDS011;75590;42.690;23.356;2024-01-15T00:35:17;130.55;;;55.35;;
85133;SDS011;75590;42.690;23.356;2024-01-15T00:37:43;135.40;;;56.53;;
85133;SDS011;75590;42.690;23.356;2024-01-15T00:40:09;127.75;;;54.58;;
85133;SDS011;75590;42.690;23.356;2024-01-15T00:42:34;128.00;;;51.40;;
85133;SDS011;75590;42.690;23.356;2024-01-15T00:45:00;132.65;;;56.70;;
85133;SDS011;75590;42.690;23.356;2024-01-15T00:47:25;127.70;;;56.47;;
85133;SDS011;75590;42.690;23.356;2024-01-15T00:49:51;133.70;;;57.47;;
85133;SDS011;75590;42.690;23.356;2024-01-15T00:52:16;125.93;;;56.83;;
85133;SDS011;75590;42.690;23.356;2024-01-15T00:54:41;122.82;;;53.00;;
85133;SDS011;75590;42.690;23.356;2024-01-15T00:57:07;120.80;;;55.28;;
85133;SDS011;75590;42.690;23.356;2024-01-15T00:59:33;122.95;;;47.15;;
85133;SDS011;75590;42.690;23.356;2024-01-15T01:01:58;108.15;;;50.00;;
85133;SDS011;75590;42.690;23.356;2024-01-15T01:04:24;120.32;;;51.63;;
85133;SDS011;75590;42.690;23.356;2024-01-15T01:06:49;126.40;;;51.67;;
85133;SDS011;75590;42.690;23.356;2024-01-15T01:09:15;109.65;;;46.53;;
85133;SDS011;75590;42.690;23.356;2024-01-15T01:11:40;116.03;;;46.85;;
85133;SDS011;75590;42.690;23.356;2024-01-15T01:14:06;159.38;;;70.40;;
85133;SDS011;75590;42.690;23.356;2024-01-15T01:16:31;159.48;;;68.88;;
85133;SDS011;75590;42.690;23.356;2024-01-15T01:19:03;120.60;;;52.58;;
85133;SDS011;75590;42.690;23.356;2024-01-15T01:21:29;116.20;;;48.20;;
85133;SDS011;75590;42.690;23.356;2024-01-15T01:23:54;118.03;;;53.80;;
85133;SDS011;75590;42.690;23.356;2024-01-15T01:26:20;114.13;;;45.88;;
85133;SDS011;75590;42.690;23.356;2024-01-15T01:28:46;117.18;;;50.00;;
85133;SDS011;75590;42.690;23.356;2024-01-15T01:31:11;128.98;;;56.55;;
85133;SDS011;75590;42.690;23.356;2024-01-15T01:33:38;126.65;;;50.50;;
85133;SDS011;75590;42.690;23.356;2024-01-15T01:36:06;118.22;;;51.35;;
85133;SDS011;75590;42.690;23.356;2024-01-15T01:38:34;133.20;;;57.50;;
85133;SDS011;75590;42.690;23.356;2024-01-15T01:41:01;122.30;;;52.72;;
85133;SDS011;75590;42.690;23.356;2024-01-15T01:43:26;120.72;;;49.63;;
85133;SDS011;75590;42.690;23.356;2024-01-15T01:45:52;124.28;;;53.60;;
85133;SDS011;75590;42.690;23.356;2024-01-15T01:48:17;121.20;;;56.22;;
85133;SDS011;75590;42.690;23.356;2024-01-15T01:50:43;121.53;;;54.17;;
85133;SDS011;75590;42.690;23.356;2024-01-15T01:53:09;101.82;;;48.15;;
85133;SDS011;75590;42.690;23.356;2024-01-15T01:55:35;86.18;;;41.40;;
85133;SDS011;75590;42.690;23.356;2024-01-15T01:58:01;87.25;;;39.97;;
85133;SDS011;75590;42.690;23.356;2024-01-15T02:00:27;76.22;;;36.17;;
85133;SDS011;75590;42.690;23.356;2024-01-15T02:02:52;108.25;;;48.10;;
85133;SDS011;75590;42.690;23.356;2024-01-15T02:05:18;103.65;;;46.72;;
85133;SDS011;75590;42.690;23.356;2024-01-15T02:07:45;96.00;;;40.47;;
85133;SDS011;75590;42.690;23.356;2024-01-15T02:10:11;71.53;;;35.53;;
85133;SDS011;75590;42.690;23.356;2024-01-15T02:12:36;86.63;;;34.65;;
85133;SDS011;75590;42.690;23.356;2024-01-15T02:15:02;63.03;;;32.80;;
85133;SDS011;75590;42.690;23.356;2024-01-15T02:17:27;86.93;;;32.33;;
85133;SDS011;75590;42.690;23.356;2024-01-15T02:19:53;66.47;;;30.60;;
85133;SDS011;75590;42.690;23.356;2024-01-15T02:22:18;66.43;;;32.95;;
85133;SDS011;75590;42.690;23.356;2024-01-15T02:24:44;86.22;;;37.75;;
85133;SDS011;75590;42.690;23.356;2024-01-15T02:27:09;63.75;;;32.90;;
85133;SDS011;75590;42.690;23.356;2024-01-15T02:29:35;77.55;;;38.10;;
85133;SDS011;75590;42.690;23.356;2024-01-15T02:32:04;77.70;;;35.80;;
85133;SDS011;75590;42.690;23.356;2024-01-15T02:34:31;73.13;;;32.22;;
85133;SDS011;75590;42.690;23.356;2024-01-15T02:36:57;67.55;;;33.63;;
85133;SDS011;75590;42.690;23.356;2024-01-15T02:39:23;55.85;;;25.73;;
85133;SDS011;75590;42.690;23.356;2024-01-15T02:41:48;60.95;;;30.60;;
85133;SDS011;75590;42.690;23.356;2024-01-15T02:44:14;70.50;;;31.08;;
85133;SDS011;75590;42.690;23.356;2024-01-15T02:46:39;60.40;;;28.05;;
85133;SDS011;75590;42.690;23.356;2024-01-15T02:49:04;72.95;;;31.85;;
85133;SDS011;75590;42.690;23.356;2024-01-15T02:51:30;61.75;;;25.35;;
85133;SDS011;75590;42.690;23.356;2024-01-15T02:53:56;56.85;;;28.15;;
85133;SDS011;75590;42.690;23.356;2024-01-15T02:56:21;63.25;;;29.85;;
85133;SDS011;75590;42.690;23.356;2024-01-15T02:58:46;50.85;;;24.40;;
85133;SDS011;75590;42.690;23.356;2024-01-15T03:01:12;61.10;;;29.67;;
85133;SDS011;75590;42.690;23.356;2024-01-15T03:03:39;47.75;;;23.05;;
85133;SDS011;75590;42.690;23.356;2024-01-15T03:06:05;37.50;;;19.92;;
85133;SDS011;75590;42.690;23.356;2024-01-15T03:08:31;55.92;;;25.77;;
85133;SDS011;75590;42.690;23.356;2024-01-15T03:10:56;44.22;;;21.35;;
85133;SDS011;75590;42.690;23.356;2024-01-15T03:13:22;54.05;;;23.40;;
85133;SDS011;75590;42.690;23.356;2024-01-15T03:15:47;47.30;;;22.77;;
85133;SDS011;75590;42.690;23.356;2024-01-15T03:18:13;53.85;;;24.40;;
85133;SDS011;75590;42.690;23.356;2024-01-15T03:20:38;89.15;;;39.95;;
85133;SDS011;75590;42.690;23.356;2024-01-15T03:23:04;79.15;;;35.63;;
85133;SDS011;75590;42.690;23.356;2024-01-15T03:25:29;47.25;;;22.90;;
85133;SDS011;75590;42.690;23.356;2024-01-15T03:27:55;42.22;;;18.83;;
85133;SDS011;75590;42.690;23.356;2024-01-15T03:30:20;24.58;;;12.75;;
85133;SDS011;75590;42.690;23.356;2024-01-15T03:32:45;29.70;;;14.40;;
85133;SDS011;75590;42.690;23.356;2024-01-15T03:35:12;25.45;;;12.10;;
85133;SDS011;75590;42.690;23.356;2024-01-15T03:37:38;18.52;;;10.70;;
85133;SDS011;75590;42.690;23.356;2024-01-15T03:40:03;25.75;;;12.27;;
85133;SDS011;75590;42.690;23.356;2024-01-15T03:42:29;22.08;;;11.40;;
85133;SDS011;75590;42.690;23.356;2024-01-15T03:44:55;25.52;;;12.23;;
85133;SDS011;75590;42.690;23.356;2024-01-15T03:47:20;37.10;;;20.38;;
85133;SDS011;75590;42.690;23.356;2024-01-15T03:49:46;24.75;;;14.43;;
85133;SDS011;75590;42.690;23.356;2024-01-15T03:52:11;25.27;;;12.73;;
85133;SDS011;75590;42.690;23.356;2024-01-15T03:54:37;28.63;;;12.02;;
85133;SDS011;75590;42.690;23.356;2024-01-15T03:57:05;24.85;;;12.98;;
85133;SDS011;75590;42.690;23.356;2024-01-15T03:59:31;31.77;;;14.93;;
85133;SDS011;75590;42.690;23.356;2024-01-15T04:01:56;28.65;;;15.73;;
85133;SDS011;75590;42.690;23.356;2024-01-15T04:04:22;33.38;;;17.48;;
85133;SDS011;75590;42.690;23.356;2024-01-15T04:06:47;38.80;;;18.27;;
85133;SDS011;75590;42.690;23.356;2024-01-15T04:09:13;39.67;;;17.73;;
85133;SDS011;75590;42.690;23.356;2024-01-15T04:11:39;43.05;;;19.77;;
85133;SDS011;75590;42.690;23.356;2024-01-15T04:14:05;44.10;;;21.80;;
85133;SDS011;75590;42.690;23.356;2024-01-15T04:16:30;39.60;;;21.50;;
85133;SDS011;75590;42.690;23.356;2024-01-15T04:18:56;45.08;;;19.88;;
85133;SDS011;75590;42.690;23.356;2024-01-15T04:21:21;36.80;;;17.77;;
85133;SDS011;75590;42.690;23.356;2024-01-15T04:23:48;40.58;;;19.40;;
85133;SDS011;75590;42.690;23.356;2024-01-15T04:26:13;36.30;;;17.23;;
85133;SDS011;75590;42.690;23.356;2024-01-15T04:28:39;37.50;;;17.20;;
85133;SDS011;75590;42.690;23.356;2024-01-15T04:31:05;36.60;;;18.05;;
85133;SDS011;75590;42.690;23.356;2024-01-15T04:33:30;37.10;;;18.77;;
85133;SDS011;75590;42.690;23.356;2024-01-15T04:35:56;38.92;;;18.40;;
85133;SDS011;75590;42.690;23.356;2024-01-15T04:38:21;35.47;;;16.80;;
85133;SDS011;75590;42.690;23.356;2024-01-15T04:40:47;36.55;;;16.77;;
85133;SDS011;75590;42.690;23.356;2024-01-15T04:43:13;36.58;;;20.02;;
85133;SDS011;75590;42.690;23.356;2024-01-15T04:45:38;39.78;;;15.52;;
85133;SDS011;75590;42.690;23.356;2024-01-15T04:48:04;38.70;;;18.27;;
85133;SDS011;75590;42.690;23.356;2024-01-15T04:50:30;34.40;;;17.63;;
85133;SDS011;75590;42.690;23.356;2024-01-15T04:52:55;40.75;;;19.95;;
85133;SDS011;75590;42.690;23.356;2024-01-15T04:55:22;42.08;;;20.27;;
85133;SDS011;75590;42.690;23.356;2024-01-15T04:57:47;43.70;;;19.60;;
85133;SDS011;75590;42.690;23.356;2024-01-15T05:00:13;38.25;;;17.15;;
85133;SDS011;75590;42.690;23.356;2024-01-15T05:02:39;44.35;;;20.80;;
85133;SDS011;75590;42.690;23.356;2024-01-15T05:05:05;38.65;;;19.40;;
85133;SDS011;75590;42.690;23.356;2024-01-15T05:07:30;40.08;;;18.23;;
85133;SDS011;75590;42.690;23.356;2024-01-15T05:09:56;37.58;;;19.05;;
85133;SDS011;75590;42.690;23.356;2024-01-15T05:12:21;41.22;;;20.05;;
85133;SDS011;75590;42.690;23.356;2024-01-15T05:14:47;45.20;;;18.42;;
85133;SDS011;75590;42.690;23.356;2024-01-15T05:17:13;40.42;;;20.95;;
85133;SDS011;75590;42.690;23.356;2024-01-15T05:19:38;62.30;;;30.30;;
85133;SDS011;75590;42.690;23.356;2024-01-15T05:22:04;29.08;;;18.30;;
85133;SDS011;75590;42.690;23.356;2024-01-15T05:24:30;35.33;;;17.85;;
85133;SDS011;75590;42.690;23.356;2024-01-15T05:26:55;33.53;;;18.98;;
85133;SDS011;75590;42.690;23.356;2024-01-15T05:29:21;36.88;;;20.15;;
85133;SDS011;75590;42.690;23.356;2024-01-15T05:31:46;42.65;;;20.92;;
85133;SDS011;75590;42.690;23.356;2024-01-15T05:34:12;40.53;;;21.30;;
85133;SDS011;75590;42.690;23.356;2024-01-15T05:36:37;36.30;;;19.95;;
85133;SDS011;75590;42.690;23.356;2024-01-15T05:39:03;32.10;;;17.63;;
85133;SDS011;75590;42.690;23.356;2024-01-15T05:41:28;39.83;;;18.80;;
85133;SDS011;75590;42.690;23.356;2024-01-15T05:43:54;42.17;;;20.45;;
85133;SDS011;75590;42.690;23.356;2024-01-15T05:46:20;35.97;;;17.15;;
85133;SDS011;75590;42.690;23.356;2024-01-15T05:48:45;37.95;;;18.20;;
85133;SDS011;75590;42.690;23.356;2024-01-15T05:51:11;34.97;;;19.75;;
85133;SDS011;75590;42.690;23.356;2024-01-15T05:53:37;35.50;;;19.83;;
85133;SDS011;75590;42.690;23.356;2024-01-15T05:56:05;32.65;;;18.48;;
85133;SDS011;75590;42.690;23.356;2024-01-15T05:58:31;42.28;;;21.85;;
85133;SDS011;75590;42.690;23.356;2024-01-15T06:00:56;38.58;;;22.00;;
85133;SDS011;75590;42.690;23.356;2024-01-15T06:03:23;38.28;;;21.80;;
85133;SDS011;75590;42.690;23.356;2024-01-15T06:05:48;49.67;;;23.13;;
85133;SDS011;75590;42.690;23.356;2024-01-15T06:08:14;52.35;;;23.13;;
85133;SDS011;75590;42.690;23.356;2024-01-15T06:10:39;50.72;;;25.33;;
85133;SDS011;75590;42.690;23.356;2024-01-15T06:13:05;40.13;;;19.05;;
85133;SDS011;75590;42.690;23.356;2024-01-15T06:15:30;42.33;;;21.88;;
85133;SDS011;75590;42.690;23.356;2024-01-15T06:17:56;46.33;;;22.65;;
85133;SDS011;75590;42.690;23.356;2024-01-15T06:20:22;47.22;;;22.75;;
85133;SDS011;75590;42.690;23.356;2024-01-15T06:22:47;43.20;;;23.42;;
85133;SDS011;75590;42.690;23.356;2024-01-15T06:25:12;48.40;;;22.50;;
85133;SDS011;75590;42.690;23.356;2024-01-15T06:27:38;40.95;;;21.75;;
85133;SDS011;75590;42.690;23.356;2024-01-15T06:30:05;50.60;;;25.92;;
85133;SDS011;75590;42.690;23.356;2024-01-15T06:32:31;42.58;;;22.33;;
85133;SDS011;75590;42.690;23.356;2024-01-15T06:34:57;48.67;;;22.45;;
85133;SDS011;75590;42.690;23.356;2024-01-15T06:37:23;48.75;;;23.23;;
85133;SDS011;75590;42.690;23.356;2024-01-15T06:39:48;49.83;;;26.40;;
85133;SDS011;75590;42.690;23.356;2024-01-15T06:42:14;51.97;;;28.42;;
85133;SDS011;75590;42.690;23.356;2024-01-15T06:44:39;54.70;;;27.02;;
85133;SDS011;75590;42.690;23.356;2024-01-15T06:47:05;58.53;;;25.73;;
85133;SDS011;75590;42.690;23.356;2024-01-15T06:49:31;47.10;;;23.85;;
85133;SDS011;75590;42.690;23.356;2024-01-15T06:51:56;52.47;;;24.95;;
85133;SDS011;75590;42.690;23.356;2024-01-15T06:54:22;55.17;;;27.55;;
85133;SDS011;75590;42.690;23.356;2024-01-15T06:56:48;55.33;;;28.30;;
85133;SDS011;75590;42.690;23.356;2024-01-15T06:59:14;50.80;;;28.00;;
85133;SDS011;75590;42.690;23.356;2024-01-15T07:01:40;49.90;;;25.80;;
85133;SDS011;75590;42.690;23.356;2024-01-15T07:04:06;59.85;;;30.02;;
85133;SDS011;75590;42.690;23.356;2024-01-15T07:06:31;47.10;;;28.10;;
85133;SDS011;75590;42.690;23.356;2024-01-15T07:08:57;52.25;;;29.33;;
85133;SDS011;75590;42.690;23.356;2024-01-15T07:11:22;51.95;;;27.80;;
85133;SDS011;75590;42.690;23.356;2024-01-15T07:13:48;57.42;;;29.95;;
85133;SDS011;75590;42.690;23.356;2024-01-15T07:16:14;55.58;;;29.55;;
85133;SDS011;75590;42.690;23.356;2024-01-15T07:18:40;55.05;;;27.48;;
85133;SDS011;75590;42.690;23.356;2024-01-15T07:21:08;55.92;;;27.25;;
85133;SDS011;75590;42.690;23.356;2024-01-15T07:23:34;60.40;;;29.02;;
85133;SDS011;75590;42.690;23.356;2024-01-15T07:25:59;60.08;;;26.13;;
85133;SDS011;75590;42.690;23.356;2024-01-15T07:28:25;61.83;;;34.00;;
85133;SDS011;75590;42.690;23.356;2024-01-15T07:30:50;63.63;;;30.35;;
85133;SDS011;75590;42.690;23.356;2024-01-15T07:33:17;58.28;;;27.83;;
85133;SDS011;75590;42.690;23.356;2024-01-15T07:35:43;40.85;;;22.63;;
85133;SDS011;75590;42.690;23.356;2024-01-15T07:38:08;60.70;;;28.50;;
85133;SDS011;75590;42.690;23.356;2024-01-15T07:40:35;63.90;;;33.17;;
85133;SDS011;75590;42.690;23.356;2024-01-15T07:43:02;66.93;;;34.22;;
85133;SDS011;75590;42.690;23.356;2024-01-15T07:45:27;67.28;;;35.70;;
85133;SDS011;75590;42.690;23.356;2024-01-15T07:47:53;74.35;;;38.80;;
85133;SDS011;75590;42.690;23.356;2024-01-15T07:50:18;76.32;;;40.97;;
85133;SDS011;75590;42.690;23.356;2024-01-15T07:52:44;81.00;;;40.58;;
85133;SDS011;75590;42.690;23.356;2024-01-15T07:55:10;84.60;;;42.72;;
85133;SDS011;75590;42.690;23.356;2024-01-15T07:57:36;90.07;;;41.03;;
85133;SDS011;75590;42.690;23.356;2024-01-15T08:00:02;73.60;;;38.10;;
85133;SDS011;75590;42.690;23.356;2024-01-15T08:02:30;76.07;;;40.17;;
85133;SDS011;75590;42.690;23.356;2024-01-15T08:04:56;84.15;;;42.13;;
85133;SDS011;75590;42.690;23.356;2024-01-15T08:07:22;80.38;;;40.42;;
85133;SDS011;75590;42.690;23.356;2024-01-15T08:09:47;135.73;;;68.53;;
85133;SDS011;75590;42.690;23.356;2024-01-15T08:12:14;133.70;;;63.92;;
85133;SDS011;75590;42.690;23.356;2024-01-15T08:14:39;146.60;;;75.68;;
85133;SDS011;75590;42.690;23.356;2024-01-15T08:17:05;143.50;;;75.00;;
85133;SDS011;75590;42.690;23.356;2024-01-15T08:19:31;140.40;;;70.25;;
85133;SDS011;75590;42.690;23.356;2024-01-15T08:21:56;127.93;;;63.53;;
85133;SDS011;75590;42.690;23.356;2024-01-15T08:24:22;125.93;;;63.78;;
85133;SDS011;75590;42.690;23.356;2024-01-15T08:26:47;116.15;;;60.75;;
85133;SDS011;75590;42.690;23.356;2024-01-15T08:29:13;122.97;;;56.42;;
85133;SDS011;75590;42.690;23.356;2024-01-15T08:31:39;140.18;;;67.47;;
85133;SDS011;75590;42.690;23.356;2024-01-15T08:34:04;125.07;;;61.95;;
85133;SDS011;75590;42.690;23.356;2024-01-15T08:36:30;104.55;;;54.70;;
85133;SDS011;75590;42.690;23.356;2024-01-15T08:38:56;95.65;;;50.75;;
85133;SDS011;75590;42.690;23.356;2024-01-15T08:41:22;114.03;;;58.50;;
85133;SDS011;75590;42.690;23.356;2024-01-15T08:43:48;107.43;;;62.22;;
85133;SDS011;75590;42.690;23.356;2024-01-15T08:46:14;110.45;;;64.20;;
85133;SDS011;75590;42.690;23.356;2024-01-15T08:48:39;105.10;;;59.80;;
85133;SDS011;75590;42.690;23.356;2024-01-15T08:51:05;121.60;;;64.72;;
85133;SDS011;75590;42.690;23.356;2024-01-15T08:53:31;100.03;;;55.72;;
85133;SDS011;75590;42.690;23.356;2024-01-15T08:55:56;99.35;;;53.85;;
85133;SDS011;75590;42.690;23.356;2024-01-15T08:58:23;97.60;;;52.22;;
85133;SDS011;75590;42.690;23.356;2024-01-15T09:00:49;73.30;;;44.70;;
85133;SDS011;75590;42.690;23.356;2024-01-15T09:03:15;83.22;;;45.05;;
85133;SDS011;75590;42.690;23.356;2024-01-15T09:05:41;58.97;;;35.47;;
85133;SDS011;75590;42.690;23.356;2024-01-15T09:08:07;46.85;;;28.65;;
85133;SDS011;75590;42.690;23.356;2024-01-15T09:10:33;53.83;;;31.63;;
85133;SDS011;75590;42.690;23.356;2024-01-15T09:12:59;64.63;;;36.30;;
85133;SDS011;75590;42.690;23.356;2024-01-15T09:15:25;65.72;;;35.60;;
85133;SDS011;75590;42.690;23.356;2024-01-15T09:17:50;53.85;;;34.05;;
85133;SDS011;75590;42.690;23.356;2024-01-15T09:20:16;57.78;;;32.47;;
85133;SDS011;75590;42.690;23.356;2024-01-15T09:22:42;53.42;;;30.00;;
85133;SDS011;75590;42.690;23.356;2024-01-15T09:25:08;47.15;;;27.88;;
85133;SDS011;75590;42.690;23.356;2024-01-15T09:27:35;51.95;;;30.73;;
85133;SDS011;75590;42.690;23.356;2024-01-15T09:30:01;50.92;;;30.02;;
85133;SDS011;75590;42.690;23.356;2024-01-15T09:32:27;50.50;;;30.35;;
85133;SDS011;75590;42.690;23.356;2024-01-15T09:34:53;55.83;;;31.98;;
85133;SDS011;75590;42.690;23.356;2024-01-15T09:37:18;48.15;;;29.55;;
85133;SDS011;75590;42.690;23.356;2024-01-15T09:39:44;50.58;;;29.85;;
85133;SDS011;75590;42.690;23.356;2024-01-15T09:42:10;59.88;;;30.13;;
85133;SDS011;75590;42.690;23.356;2024-01-15T09:44:36;58.45;;;29.63;;
85133;SDS011;75590;42.690;23.356;2024-01-15T09:47:02;53.53;;;27.30;;
85133;SDS011;75590;42.690;23.356;2024-01-15T09:49:28;63.80;;;32.92;;
85133;SDS011;75590;42.690;23.356;2024-01-15T09:51:55;57.30;;;31.33;;
85133;SDS011;75590;42.690;23.356;2024-01-15T09:54:21;52.13;;;28.60;;
85133;SDS011;75590;42.690;23.356;2024-01-15T09:56:47;66.00;;;32.60;;
85133;SDS011;75590;42.690;23.356;2024-01-15T09:59:15;54.55;;;30.13;;
85133;SDS011;75590;42.690;23.356;2024-01-15T10:01:42;57.30;;;30.35;;
85133;SDS011;75590;42.690;23.356;2024-01-15T10:04:09;60.15;;;31.27;;
85133;SDS011;75590;42.690;23.356;2024-01-15T10:06:38;58.38;;;29.58;;
85133;SDS011;75590;42.690;23.356;2024-01-15T10:09:04;53.47;;;30.42;;
85133;SDS011;75590;42.690;23.356;2024-01-15T10:11:30;58.80;;;29.77;;
85133;SDS011;75590;42.690;23.356;2024-01-15T10:13:56;57.97;;;28.20;;
85133;SDS011;75590;42.690;23.356;2024-01-15T10:16:22;57.50;;;29.45;;
85133;SDS011;75590;42.690;23.356;2024-01-15T10:18:48;53.10;;;29.73;;
85133;SDS011;75590;42.690;23.356;2024-01-15T10:21:16;56.92;;;29.90;;
85133;SDS011;75590;42.690;23.356;2024-01-15T10:23:41;59.67;;;32.85;;
85133;SDS011;75590;42.690;23.356;2024-01-15T10:26:07;57.33;;;29.13;;
85133;SDS011;75590;42.690;23.356;2024-01-15T10:28:33;49.90;;;24.70;;
85133;SDS011;75590;42.690;23.356;2024-01-15T10:30:59;49.75;;;27.30;;
85133;SDS011;75590;42.690;23.356;2024-01-15T10:33:25;49.28;;;25.60;;
85133;SDS011;75590;42.690;23.356;2024-01-15T10:35:51;60.33;;;29.98;;
85133;SDS011;75590;42.690;23.356;2024-01-15T10:38:22;57.30;;;30.58;;
85133;SDS011;75590;42.690;23.356;2024-01-15T10:40:50;67.68;;;33.40;;
85133;SDS011;75590;42.690;23.356;2024-01-15T10:43:17;68.80;;;32.83;;
85133;SDS011;75590;42.690;23.356;2024-01-15T10:45:49;59.40;;;29.60;;
85133;SDS011;75590;42.690;23.356;2024-01-15T10:48:16;63.33;;;29.02;;
85133;SDS011;75590;42.690;23.356;2024-01-15T10:50:43;62.60;;;31.70;;
85133;SDS011;75590;42.690;23.356;2024-01-15T10:53:09;59.35;;;29.40;;
85133;SDS011;75590;42.690;23.356;2024-01-15T10:55:37;55.65;;;28.42;;
85133;SDS011;75590;42.690;23.356;2024-01-15T10:58:04;50.00;;;27.92;;
85133;SDS011;75590;42.690;23.356;2024-01-15T11:00:30;51.20;;;25.63;;
85133;SDS011;75590;42.690;23.356;2024-01-15T11:02:56;47.58;;;23.33;;
85133;SDS011;75590;42.690;23.356;2024-01-15T11:05:22;43.53;;;23.77;;
85133;SDS011;75590;42.690;23.356;2024-01-15T11:07:48;37.13;;;17.17;;
85133;SDS011;75590;42.690;23.356;2024-01-15T11:18:35;49.47;;;24.45;;
85133;SDS011;75590;42.690;23.356;2024-01-15T11:26:28;45.15;;;25.35;;
85133;SDS011;75590;42.690;23.356;2024-01-15T11:34:21;42.75;;;22.48;;
85133;SDS011;75590;42.690;23.356;2024-01-15T11:37:20;41.80;;;22.55;;
85133;SDS011;75590;42.690;23.356;2024-01-15T11:39:46;46.88;;;24.10;;
85133;SDS011;75590;42.690;23.356;2024-01-15T11:42:12;39.80;;;21.85;;
85133;SDS011;75590;42.690;23.356;2024-01-15T11:44:38;36.53;;;20.10;;
85133;SDS011;75590;42.690;23.356;2024-01-15T11:47:08;32.88;;;18.88;;
85133;SDS011;75590;42.690;23.356;2024-01-15T11:52:25;40.17;;;19.25;;
85133;SDS011;75590;42.690;23.356;2024-01-15T11:57:28;36.10;;;21.55;;
85133;SDS011;75590;42.690;23.356;2024-01-15T12:00:00;33.40;;;18.80;;
85133;SDS011;75590;42.690;23.356;2024-01-15T12:02:25;34.28;;;20.10;;
85133;SDS011;75590;42.690;23.356;2024-01-15T12:04:51;33.95;;;18.23;;
85133;SDS011;75590;42.690;23.356;2024-01-15T12:07:17;34.20;;;18.20;;
85133;SDS011;75590;42.690;23.356;2024-01-15T12:09:43;33.95;;;17.50;;
85133;SDS011;75590;42.690;23.356;2024-01-15T12:12:09;30.90;;;19.10;;
85133;SDS011;75590;42.690;23.356;2024-01-15T12:14:40;35.13;;;18.98;;
85133;SDS011;75590;42.690;23.356;2024-01-15T12:17:06;31.38;;;18.73;;
85133;SDS011;75590;42.690;23.356;2024-01-15T12:19:31;37.70;;;20.73;;
85133;SDS011;75590;42.690;23.356;2024-01-15T12:21:57;34.10;;;17.50;;
85133;SDS011;75590;42.690;23.356;2024-01-15T12:24:23;35.45;;;17.45;;
85133;SDS011;75590;42.690;23.356;2024-01-15T12:26:48;32.25;;;19.70;;
85133;SDS011;75590;42.690;23.356;2024-01-15T12:29:14;95.63;;;49.05;;
85133;SDS011;75590;42.690;23.356;2024-01-15T12:31:43;46.78;;;23.80;;
85133;SDS011;75590;42.690;23.356;2024-01-15T12:34:11;43.75;;;22.67;;
85133;SDS011;75590;42.690;23.356;2024-01-15T12:36:37;40.72;;;21.80;;
85133;SDS011;75590;42.690;23.356;2024-01-15T12:39:02;45.25;;;22.52;;
85133;SDS011;75590;42.690;23.356;2024-01-15T12:41:28;48.65;;;25.48;;
85133;SDS011;75590;42.690;23.356;2024-01-15T12:43:53;45.65;;;25.10;;
85133;SDS011;75590;42.690;23.356;2024-01-15T12:46:19;45.17;;;23.40;;
85133;SDS011;75590;42.690;23.356;2024-01-15T12:48:45;35.00;;;20.10;;
85133;SDS011;75590;42.690;23.356;2024-01-15T12:51:10;36.92;;;19.80;;
85133;SDS011;75590;42.690;23.356;2024-01-15T12:53:36;39.03;;;21.42;;
85133;SDS011;75590;42.690;23.356;2024-01-15T12:56:02;45.17;;;21.73;;
85133;SDS011;75590;42.690;23.356;2024-01-15T12:58:28;44.85;;;21.70;;
85133;SDS011;75590;42.690;23.356;2024-01-15T13:00:53;42.75;;;18.63;;
85133;SDS011;75590;42.690;23.356;2024-01-15T13:03:19;37.20;;;18.80;;
85133;SDS011;75590;42.690;23.356;2024-01-15T13:05:44;34.55;;;19.98;;
85133;SDS011;75590;42.690;23.356;2024-01-15T13:08:10;40.10;;;20.65;;
85133;SDS011;75590;42.690;23.356;2024-01-15T13:10:36;33.80;;;19.48;;
85133;SDS011;75590;42.690;23.356;2024-01-15T13:13:02;37.10;;;17.50;;
85133;SDS011;75590;42.690;23.356;2024-01-15T13:15:28;38.65;;;21.63;;
85133;SDS011;75590;42.690;23.356;2024-01-15T13:17:53;37.63;;;19.10;;
85133;SDS011;75590;42.690;23.356;2024-01-15T13:20:20;35.63;;;18.90;;
85133;SDS011;75590;42.690;23.356;2024-01-15T13:22:46;33.78;;;20.08;;
85133;SDS011;75590;42.690;23.356;2024-01-15T13:25:12;37.45;;;20.17;;
85133;SDS011;75590;42.690;23.356;2024-01-15T13:27:37;33.53;;;19.42;;
85133;SDS011;75590;42.690;23.356;2024-01-15T13:30:03;33.13;;;18.98;;
85133;SDS011;75590;42.690;23.356;2024-01-15T13:32:29;34.28;;;16.33;;
85133;SDS011;75590;42.690;23.356;2024-01-15T13:34:55;34.30;;;19.38;;
85133;SDS011;75590;42.690;23.356;2024-01-15T13:37:21;34.83;;;17.80;;
85133;SDS011;75590;42.690;23.356;2024-01-15T13:39:50;35.15;;;19.45;;
85133;SDS011;75590;42.690;23.356;2024-01-15T13:42:17;35.42;;;19.35;;
85133;SDS011;75590;42.690;23.356;2024-01-15T13:44:43;33.28;;;19.33;;
85133;SDS011;75590;42.690;23.356;2024-01-15T13:47:09;37.63;;;18.02;;
85133;SDS011;75590;42.690;23.356;2024-01-15T13:49:35;34.88;;;19.40;;
85133;SDS011;75590;42.690;23.356;2024-01-15T13:52:02;31.63;;;18.70;;
85133;SDS011;75590;42.690;23.356;2024-01-15T13:54:29;30.85;;;19.73;;
85133;SDS011;75590;42.690;23.356;2024-01-15T13:56:55;39.65;;;19.13;;
85133;SDS011;75590;42.690;23.356;2024-01-15T13:59:20;38.58;;;19.08;;
85133;SDS011;75590;42.690;23.356;2024-01-15T14:01:46;31.60;;;17.88;;
85133;SDS011;75590;42.690;23.356;2024-01-15T14:04:12;37.40;;;19.85;;
85133;SDS011;75590;42.690;23.356;2024-01-15T14:06:38;35.45;;;19.63;;
85133;SDS011;75590;42.690;23.356;2024-01-15T14:09:04;37.25;;;21.67;;
85133;SDS011;75590;42.690;23.356;2024-01-15T14:11:30;39.75;;;23.02;;
85133;SDS011;75590;42.690;23.356;2024-01-15T14:13:56;38.10;;;19.65;;
85133;SDS011;75590;42.690;23.356;2024-01-15T14:16:22;38.17;;;18.25;;
85133;SDS011;75590;42.690;23.356;2024-01-15T14:18:47;41.70;;;20.05;;
85133;SDS011;75590;42.690;23.356;2024-01-15T14:21:14;42.47;;;17.80;;
85133;SDS011;75590;42.690;23.356;2024-01-15T14:23:40;34.03;;;20.13;;